createdAt,value
2019-02-26T00:03:04.536Z,21.85
2019-02-26T00:07:07.042Z,21.35
2019-02-26T00:11:13.422Z,22.62
2019-02-26T00:15:16.828Z,22.15
2019-02-26T00:19:20.236Z,21.35
2019-02-26T00:23:25.345Z,22.13
2019-02-26T00:27:30.623Z,23.62
2019-02-26T00:31:33.842Z,23.18
2019-02-26T00:35:39.335Z,24.00
2019-02-26T00:39:42.302Z,20.52
2019-02-26T00:43:45.705Z,20.37
2019-02-26T00:47:49.124Z,21.00
2019-02-26T00:51:52.854Z,23.00
2019-02-26T00:55:58.461Z,22.50
2019-02-26T01:00:03.405Z,22.45
2019-02-26T01:04:06.436Z,24.32
2019-02-26T01:08:12.364Z,25.17
2019-02-26T01:12:16.635Z,24.10
2019-02-26T01:16:20.152Z,23.15
2019-02-26T01:20:25.537Z,23.10
2019-02-26T01:24:30.468Z,21.50
2019-02-26T01:28:33.555Z,22.55
2019-02-26T01:32:36.958Z,22.73
2019-02-26T01:36:42.631Z,24.03
2019-02-26T01:40:48.454Z,23.03
2019-02-26T01:44:51.585Z,22.68
2019-02-26T01:48:55.201Z,22.17
2019-02-26T01:53:01.064Z,22.57
2019-02-26T01:57:04.531Z,22.50
2019-02-26T02:01:09.972Z,24.30
2019-02-26T02:05:13.035Z,24.52
2019-02-26T02:09:18.673Z,24.12
2019-02-26T02:13:25.947Z,25.12
2019-02-26T02:17:28.687Z,23.70
2019-02-26T02:21:33.788Z,23.30
2019-02-26T02:25:38.742Z,23.65
2019-02-26T02:29:45.706Z,23.50
2019-02-26T02:33:47.867Z,24.57
2019-02-26T02:37:53.549Z,25.23
2019-02-26T02:41:57.435Z,25.17
2019-02-26T02:46:01.327Z,23.42
2019-02-26T02:50:09.192Z,22.03
2019-02-26T02:54:15.348Z,18.77
2019-02-26T02:58:20.167Z,22.58
2019-02-26T03:02:23.083Z,21.50
2019-02-26T03:06:28.103Z,23.30
2019-02-26T03:10:34.190Z,22.63
2019-02-26T03:14:39.114Z,22.47
2019-02-26T03:18:41.729Z,22.77
2019-02-26T03:22:48.748Z,22.65
2019-02-26T03:26:50.192Z,23.97
2019-02-26T03:30:53.614Z,25.17
2019-02-26T03:35:02.152Z,22.55
2019-02-26T03:39:02.844Z,24.95
2019-02-26T03:43:07.739Z,23.77
2019-02-26T03:47:11.328Z,23.40
2019-02-26T03:51:17.131Z,23.37
2019-02-26T03:55:19.993Z,25.17
2019-02-26T03:59:23.409Z,23.23
2019-02-26T04:03:26.915Z,21.07
2019-02-26T04:07:33.219Z,22.57
2019-02-26T04:11:35.468Z,21.73
2019-02-26T04:15:38.942Z,21.70
2019-02-26T04:19:44.523Z,22.65
2019-02-26T04:23:47.539Z,22.93
2019-02-26T04:27:56.365Z,22.97
2019-02-26T04:32:20.965Z,22.63
2019-02-26T04:36:28.435Z,23.40
2019-02-26T04:40:36.317Z,23.00
2019-02-26T04:45:05.866Z,23.30
2019-02-26T04:49:08.408Z,25.47
2019-02-26T04:53:11.722Z,22.67
2019-02-26T04:57:15.036Z,26.17
2019-02-26T05:01:19.206Z,26.13
2019-02-26T05:05:25.169Z,26.97
2019-02-26T05:09:29.807Z,25.70
2019-02-26T05:13:34.625Z,28.30
2019-02-26T05:17:38.024Z,26.82
2019-02-26T05:21:41.519Z,26.47
2019-02-26T05:25:44.937Z,24.60
2019-02-26T05:29:49.641Z,25.77
2019-02-26T05:33:55.329Z,25.83
2019-02-26T05:38:01.020Z,24.02
2019-02-26T05:42:06.175Z,24.07
2019-02-26T05:46:08.844Z,24.00
2019-02-26T05:50:16.186Z,24.97
2019-02-26T05:54:20.818Z,24.77
2019-02-26T05:58:22.430Z,23.57
2019-02-26T06:02:25.845Z,23.27
2019-02-26T06:06:29.254Z,22.27
2019-02-26T06:10:32.723Z,25.83
2019-02-26T06:14:39.003Z,26.10
2019-02-26T06:18:42.044Z,25.50
2019-02-26T06:22:46.285Z,27.23
2019-02-26T06:26:49.677Z,27.30
2019-02-26T06:30:54.997Z,28.50
2019-02-26T06:34:58.239Z,28.30
2019-02-26T06:39:03.691Z,27.70
2019-02-26T06:43:06.791Z,25.87
2019-02-26T06:47:10.200Z,28.00
2019-02-26T06:51:13.622Z,27.17
2019-02-26T06:55:17.033Z,27.98
2019-02-26T06:59:25.174Z,26.15
2019-02-26T07:03:28.856Z,26.77
2019-02-26T07:07:32.566Z,26.75
2019-02-26T07:11:37.903Z,25.92
2019-02-26T07:15:43.066Z,28.67
2019-02-26T07:19:46.378Z,28.07
2019-02-26T07:23:51.634Z,28.55
2019-02-26T07:27:56.340Z,29.32
2019-02-26T07:32:00.196Z,28.30
2019-02-26T07:36:04.169Z,30.08
2019-02-26T07:40:13.015Z,31.17
2019-02-26T07:44:18.638Z,30.72
2019-02-26T07:48:23.356Z,30.82
2019-02-26T07:52:28.285Z,32.45
2019-02-26T07:56:32.736Z,35.20
2019-02-26T08:00:37.687Z,32.80
2019-02-26T08:04:43.506Z,34.95
2019-02-26T08:08:48.814Z,34.10
2019-02-26T08:12:51.795Z,34.03
2019-02-26T08:16:56.210Z,33.75
2019-02-26T08:21:02.451Z,34.80
2019-02-26T08:25:07.215Z,34.50
2019-02-26T08:29:12.468Z,35.00
2019-02-26T08:33:16.007Z,34.35
2019-02-26T08:37:19.349Z,32.85
2019-02-26T08:41:22.717Z,33.60
2019-02-26T08:45:26.132Z,34.65
2019-02-26T08:49:29.541Z,33.53
2019-02-26T08:53:32.955Z,32.73
2019-02-26T08:57:36.354Z,35.73
2019-02-26T09:01:39.678Z,33.93
2019-02-26T09:05:43.068Z,34.13
2019-02-26T09:09:48.105Z,35.33
2019-02-26T09:13:51.626Z,33.02
2019-02-26T09:17:55.040Z,33.42
2019-02-26T09:21:58.764Z,34.35
2019-02-26T09:26:04.453Z,34.27
2019-02-26T09:30:11.746Z,36.00
2019-02-26T09:34:15.638Z,34.63
2019-02-26T09:38:22.493Z,36.60
2019-02-26T09:42:25.654Z,36.68
2019-02-26T09:46:31.205Z,36.75
2019-02-26T09:50:36.736Z,36.90
2019-02-26T09:54:42.696Z,38.67
2019-02-26T09:58:46.507Z,37.48
2019-02-26T10:02:51.900Z,38.63
2019-02-26T10:06:54.888Z,36.95
2019-02-26T10:11:00.315Z,38.02
2019-02-26T10:15:05.296Z,37.85
2019-02-26T10:19:10.215Z,36.90
2019-02-26T10:23:13.725Z,36.10
2019-02-26T10:27:17.157Z,36.53
2019-02-26T10:31:24.120Z,37.93
2019-02-26T10:35:33.180Z,37.17
2019-02-26T10:39:32.165Z,31.97
2019-02-26T10:43:35.577Z,30.62
2019-02-26T10:47:38.908Z,32.65
2019-02-26T10:51:43.050Z,27.32
2019-02-26T10:55:46.537Z,23.02
2019-02-26T10:59:49.953Z,23.47
2019-02-26T11:03:55.182Z,19.67
2019-02-26T11:08:01.872Z,20.88
2019-02-26T11:12:06.005Z,21.52
2019-02-26T11:16:08.822Z,26.15
2019-02-26T11:20:14.765Z,28.42
2019-02-26T11:24:18.062Z,25.72
2019-02-26T11:28:21.394Z,26.87
2019-02-26T11:32:24.707Z,26.20
2019-02-26T11:36:30.406Z,25.27
2019-02-26T11:40:33.686Z,26.02
2019-02-26T11:44:37.282Z,25.97
2019-02-26T11:48:40.701Z,26.23
2019-02-26T11:52:44.101Z,26.33
2019-02-26T11:56:49.812Z,26.65
2019-02-26T12:00:54.304Z,27.48
2019-02-26T12:04:59.903Z,26.95
2019-02-26T12:09:05.479Z,26.15
2019-02-26T12:13:08.214Z,26.33
2019-02-26T12:17:11.689Z,25.37
2019-02-26T12:21:15.237Z,25.10
2019-02-26T12:25:18.645Z,25.15
2019-02-26T12:29:23.576Z,26.45
2019-02-26T12:33:27.315Z,25.17
2019-02-26T12:37:31.330Z,26.06
2019-02-26T12:41:36.585Z,26.97
2019-02-26T12:45:40.675Z,25.37
2019-02-26T12:49:45.126Z,27.02
2019-02-26T12:53:50.081Z,25.97
2019-02-26T12:57:56.472Z,25.10
2019-02-26T13:01:58.749Z,25.32
2019-02-26T13:06:05.162Z,24.18
2019-02-26T13:10:13.455Z,26.90
2019-02-26T13:14:17.866Z,26.00
2019-02-26T13:18:21.293Z,26.80
2019-02-26T13:22:24.626Z,26.77
2019-02-26T13:26:27.984Z,26.85
2019-02-26T13:30:31.437Z,27.42
2019-02-26T13:34:34.826Z,26.60
2019-02-26T13:38:44.837Z,28.32
2019-02-26T13:42:50.229Z,28.15
2019-02-26T13:46:48.535Z,28.27
2019-02-26T13:50:51.989Z,28.47
2019-02-26T13:54:55.303Z,29.00
2019-02-26T13:58:58.776Z,27.85
2019-02-26T14:03:04.105Z,27.15
2019-02-26T14:07:07.325Z,28.80
2019-02-26T14:11:10.731Z,28.15
2019-02-26T14:15:27.129Z,29.18
2019-02-26T14:19:30.666Z,29.00
2019-02-26T14:23:35.165Z,27.42
2019-02-26T14:27:39.219Z,26.70
2019-02-26T14:31:42.628Z,26.70
2019-02-26T14:35:46.035Z,27.55
2019-02-26T14:39:49.546Z,25.70
2019-02-26T14:43:52.953Z,19.27
2019-02-26T14:47:56.367Z,19.52
2019-02-26T14:52:00.834Z,19.52
2019-02-26T14:56:04.219Z,19.42
2019-02-26T15:00:16.527Z,20.90
2019-02-26T15:04:20.035Z,20.65
2019-02-26T15:08:23.546Z,20.82
2019-02-26T15:12:26.958Z,20.23
2019-02-26T15:16:30.914Z,20.62
2019-02-26T15:20:34.698Z,21.37
2019-02-26T15:24:38.414Z,20.62
2019-02-26T15:28:41.925Z,20.82
2019-02-26T15:32:45.539Z,20.97
2019-02-26T15:36:48.860Z,20.00
2019-02-26T15:40:53.378Z,21.60
2019-02-26T15:44:57.671Z,20.72
2019-02-26T15:49:01.946Z,20.55
2019-02-26T15:53:07.261Z,20.55
2019-02-26T15:57:10.599Z,22.58
2019-02-26T16:01:15.213Z,22.55
2019-02-26T16:05:19.657Z,23.27
2019-02-26T16:09:23.082Z,23.27
2019-02-26T16:13:26.491Z,24.33
2019-02-26T16:17:29.857Z,24.90
2019-02-26T16:21:33.310Z,24.25
2019-02-26T16:25:36.722Z,26.45
2019-02-26T16:29:40.139Z,26.15
2019-02-26T16:33:46.387Z,24.07
2019-02-26T16:37:49.404Z,25.60
2019-02-26T16:41:52.811Z,25.23
2019-02-26T16:45:56.222Z,25.40
2019-02-26T16:50:11.921Z,26.15
2019-02-26T16:54:07.388Z,25.30
2019-02-26T16:58:09.932Z,25.30
2019-02-26T17:02:13.259Z,24.25
2019-02-26T17:06:20.501Z,25.32
2019-02-26T17:10:23.055Z,24.07
2019-02-26T17:14:26.407Z,22.27
2019-02-26T17:18:29.716Z,20.00
2019-02-26T17:22:33.045Z,23.40
2019-02-26T17:26:36.367Z,23.83
2019-02-26T17:30:39.762Z,23.60
2019-02-26T17:34:43.067Z,23.77
2019-02-26T17:38:46.374Z,22.90
2019-02-26T17:42:51.337Z,19.67
2019-02-26T17:46:55.346Z,18.40
2019-02-26T17:50:58.769Z,20.22
2019-02-26T17:55:02.129Z,23.32
2019-02-26T17:59:05.465Z,23.18
2019-02-26T18:03:08.875Z,18.25
2019-02-26T18:07:12.387Z,25.95
2019-02-26T18:11:15.795Z,42.42
2019-02-26T18:15:20.861Z,14.80
2019-02-26T18:19:24.228Z,19.52
2019-02-26T18:23:27.562Z,19.55
2019-02-26T18:27:31.152Z,20.55
2019-02-26T18:31:34.577Z,21.73
2019-02-26T18:35:37.991Z,22.98
2019-02-26T18:39:41.814Z,21.73
2019-02-26T18:43:47.521Z,21.02
2019-02-26T18:47:50.472Z,20.85
2019-02-26T18:51:53.886Z,21.62
2019-02-26T18:55:57.392Z,22.85
2019-02-26T19:00:00.824Z,21.15
2019-02-26T19:04:04.207Z,20.82
2019-02-26T19:08:07.616Z,22.60
2019-02-26T19:12:11.134Z,20.77
2019-02-26T19:16:14.541Z,23.05
2019-02-26T19:20:23.684Z,22.68
2019-02-26T19:24:27.103Z,20.70
2019-02-26T19:28:30.500Z,22.35
2019-02-26T19:32:34.016Z,23.75
2019-02-26T19:36:37.524Z,24.35
2019-02-26T19:40:43.737Z,17.27
2019-02-26T19:44:47.067Z,18.35
2019-02-26T19:48:50.517Z,18.90
2019-02-26T19:52:56.987Z,20.77
2019-02-26T19:56:59.074Z,21.50
2019-02-26T20:01:02.480Z,20.95
2019-02-26T20:05:09.523Z,19.00
2019-02-26T20:09:14.524Z,20.40
2019-02-26T20:13:17.936Z,17.44
2019-02-26T20:17:21.342Z,17.83
2019-02-26T20:21:25.781Z,15.75
2019-02-26T20:25:29.180Z,16.57
2019-02-26T20:29:32.591Z,18.87
2019-02-26T20:33:37.028Z,17.67
2019-02-26T20:37:40.742Z,19.85
2019-02-26T20:41:44.095Z,15.60
2019-02-26T20:45:48.691Z,14.85
2019-02-26T20:49:52.507Z,16.23
2019-02-26T20:53:56.218Z,17.60
2019-02-26T20:57:59.628Z,16.23
2019-02-26T21:02:03.045Z,16.92
2019-02-26T21:06:06.360Z,17.62
2019-02-26T21:10:14.997Z,15.90
2019-02-26T21:14:16.952Z,16.25
2019-02-26T21:18:20.360Z,14.70
2019-02-26T21:22:23.767Z,15.83
2019-02-26T21:26:27.067Z,17.82
2019-02-26T21:30:30.381Z,16.07
2019-02-26T21:34:33.789Z,20.20
2019-02-26T21:38:38.782Z,19.07
2019-02-26T21:42:42.250Z,16.20
2019-02-26T21:46:45.655Z,16.82
2019-02-26T21:50:49.062Z,17.92
2019-02-26T21:54:52.472Z,18.30
2019-02-26T21:58:56.947Z,16.65
2019-02-26T22:03:00.930Z,14.20
2019-02-26T22:07:04.350Z,14.50
2019-02-26T22:11:07.780Z,14.83
2019-02-26T22:15:13.710Z,16.07
2019-02-26T22:19:17.115Z,18.07
2019-02-26T22:23:20.443Z,17.67
2019-02-26T22:27:23.839Z,17.62
2019-02-26T22:31:28.945Z,19.20
2019-02-26T22:35:33.053Z,21.97
2019-02-26T22:39:36.707Z,16.32
2019-02-26T22:43:40.007Z,16.35
2019-02-26T22:47:44.553Z,16.12
2019-02-26T22:51:47.982Z,19.97
2019-02-26T22:55:51.395Z,19.52
2019-02-26T22:59:54.786Z,22.83
2019-02-26T23:03:58.205Z,19.05
2019-02-26T23:08:01.615Z,18.07
2019-02-26T23:12:05.663Z,20.62
2019-02-26T23:16:09.153Z,18.90
2019-02-26T23:20:12.558Z,23.00
2019-02-26T23:24:16.070Z,15.43
2019-02-26T23:28:21.700Z,17.93
2019-02-26T23:32:24.525Z,16.47
2019-02-26T23:36:28.602Z,18.50
2019-02-26T23:40:32.039Z,20.63
2019-02-26T23:44:35.474Z,21.57
2019-02-26T23:48:40.977Z,20.50
2019-02-26T23:52:43.877Z,20.23
2019-02-26T23:56:47.231Z,18.47
